createdAt,value
2023-05-12T03:44:20.509Z,94654.09
2023-05-12T03:59:22.367Z,94655.38
2023-05-12T04:14:31.792Z,94659.25
2023-05-12T04:29:41.330Z,94658.72
2023-05-12T04:44:46.181Z,94659.03
2023-05-12T04:59:48.232Z,94666.63
2023-05-12T05:14:50.109Z,94666.88
2023-05-12T05:29:52.280Z,94670.00
2023-05-12T05:44:54.253Z,94683.56
2023-05-12T05:59:56.505Z,94683.03
2023-05-12T06:14:58.466Z,94690.59
2023-05-12T06:30:00.460Z,94704.66
2023-05-12T06:45:02.453Z,94715.53
2023-05-12T07:00:05.230Z,94715.81
2023-05-12T07:15:08.600Z,94709.75
2023-05-12T07:30:11.400Z,94720.16
2023-05-12T07:45:13.277Z,94730.78
2023-05-12T08:00:15.936Z,94724.38
2023-05-12T08:15:18.097Z,94710.28
2023-05-12T08:30:20.449Z,94726.66
2023-05-12T08:45:24.629Z,94717.41
2023-05-12T09:00:28.861Z,94726.69
2023-05-12T09:15:37.534Z,94713.06
2023-05-12T09:30:42.695Z,94694.38
2023-05-12T09:45:54.207Z,94708.47
2023-05-12T10:16:03.351Z,94684.13
2023-05-12T10:31:08.360Z,94679.66
2023-05-12T10:46:17.199Z,94670.75
2023-05-12T11:01:25.716Z,94682.56
2023-05-12T11:16:28.414Z,94670.00
2023-05-12T11:31:30.460Z,94680.56
2023-05-12T11:46:32.375Z,94681.53
2023-05-12T12:01:46.411Z,94682.88
2023-05-12T12:16:48.331Z,94683.94
2023-05-12T12:31:50.285Z,94684.53
2023-05-12T12:46:52.211Z,94680.59
2023-05-12T13:01:54.168Z,94669.13
2023-05-12T13:16:56.202Z,94646.31
2023-05-12T13:31:58.044Z,94628.84
2023-05-12T13:47:00.085Z,94623.56
2023-05-12T14:02:02.484Z,94640.03
2023-05-12T14:17:04.884Z,94645.53
2023-05-12T14:32:07.740Z,94636.44
2023-05-12T14:47:09.800Z,94640.19
2023-05-12T15:02:11.727Z,94620.91
2023-05-12T15:17:16.363Z,94604.25
2023-05-12T15:32:18.234Z,94587.81
2023-05-12T15:47:20.145Z,94589.47
2023-05-12T16:02:22.325Z,94610.84
2023-05-12T16:17:24.252Z,94604.84
2023-05-12T16:32:26.137Z,94617.44
2023-05-12T16:47:29.684Z,94629.34
2023-05-12T17:02:32.339Z,94628.44
2023-05-12T17:17:34.634Z,94637.66
2023-05-12T17:32:36.766Z,94649.19
2023-05-12T17:47:38.678Z,94661.16
2023-05-12T18:02:41.398Z,94673.31
2023-05-12T18:17:43.522Z,94690.16
2023-05-12T18:32:45.541Z,94691.13
2023-05-12T18:47:47.626Z,94709.69
2023-05-12T19:02:49.751Z,94714.31
2023-05-12T19:17:51.741Z,94733.22
2023-05-12T19:32:58.394Z,94744.91
2023-05-12T19:48:00.421Z,94748.53
2023-05-12T20:03:05.565Z,94737.13
2023-05-12T20:18:07.512Z,94749.03
2023-05-12T20:33:09.528Z,94744.03
2023-05-12T20:48:11.554Z,94753.06
2023-05-12T21:03:17.259Z,94760.69
2023-05-12T21:18:19.584Z,94783.28
2023-05-12T21:33:21.623Z,94814.25
2023-05-12T21:48:24.956Z,94842.53
2023-05-12T22:03:26.837Z,94848.41
2023-05-12T22:18:29.075Z,94863.13
2023-05-12T22:33:31.842Z,94846.38
2023-05-12T22:48:38.694Z,94833.19
2023-05-12T23:03:41.911Z,94825.78
2023-05-12T23:18:43.918Z,94793.91
2023-05-12T23:33:45.924Z,94780.81
2023-05-12T23:48:47.783Z,94746.91
